createdAt,value
2017-09-03T06:53:53.310Z,64.90
2017-09-03T06:56:21.285Z,65.50
2017-09-03T06:58:48.479Z,65.20
2017-09-03T07:01:15.638Z,65.20
2017-09-03T07:03:42.791Z,65.50
2017-09-03T07:06:10.294Z,66.30
2017-09-03T07:08:38.345Z,65.80
2017-09-03T07:11:05.534Z,65.30
2017-09-03T07:13:32.672Z,66.00
2017-09-03T07:15:59.817Z,65.70
2017-09-03T07:18:28.669Z,66.10
2017-09-03T07:20:55.810Z,66.10
2017-09-03T07:23:22.991Z,66.80
2017-09-03T07:25:50.134Z,66.20
2017-09-03T07:28:17.268Z,66.30
2017-09-03T07:30:44.406Z,66.40
2017-09-03T07:33:12.463Z,66.30
2017-09-03T07:35:40.446Z,66.50
2017-09-03T07:38:08.522Z,66.30
2017-09-03T07:40:35.668Z,66.50
2017-09-03T07:43:02.815Z,66.50
2017-09-03T07:45:29.955Z,66.60
2017-09-03T07:47:58.082Z,66.80
2017-09-03T07:50:25.222Z,66.90
2017-09-03T07:52:53.168Z,67.20
2017-09-03T07:55:21.093Z,67.20
2017-09-03T07:57:49.789Z,67.50
2017-09-03T08:00:17.879Z,67.40
2017-09-03T08:02:45.028Z,67.30
2017-09-03T08:05:14.052Z,67.40
2017-09-03T08:07:42.130Z,67.40
2017-09-03T08:10:09.274Z,67.50
2017-09-03T08:12:37.366Z,67.70
2017-09-03T08:15:05.418Z,67.80
2017-09-03T08:17:32.563Z,67.80
2017-09-03T08:20:00.610Z,67.80
2017-09-03T08:22:28.553Z,68.00
2017-09-03T08:24:57.391Z,67.40
2017-09-03T08:27:25.442Z,67.40
2017-09-03T08:29:52.586Z,67.30
2017-09-03T08:32:19.741Z,67.80
2017-09-03T08:34:46.900Z,67.20
2017-09-03T08:37:14.984Z,66.70
2017-09-03T08:39:42.118Z,67.00
2017-09-03T08:42:10.163Z,67.10
2017-09-03T08:44:38.205Z,66.80
2017-09-03T08:47:06.175Z,67.00
2017-09-03T08:49:33.328Z,66.90
2017-09-03T08:57:25.731Z,66.20
2017-09-03T08:59:59.211Z,66.30
2017-09-03T09:02:28.461Z,66.10
2017-09-03T09:04:56.514Z,67.20
2017-09-03T09:07:23.727Z,66.50
2017-09-03T09:09:50.894Z,66.00
2017-09-03T09:12:18.137Z,66.30
2017-09-03T09:14:45.276Z,66.00
2017-09-03T09:17:13.333Z,66.10
2017-09-03T09:19:40.471Z,66.00
2017-09-03T09:22:12.088Z,66.00
2017-09-03T09:24:39.336Z,66.00
2017-09-03T09:27:07.416Z,65.00
2017-09-03T09:29:48.293Z,65.50
2017-09-03T09:32:17.074Z,65.60
2017-09-03T09:34:48.881Z,65.30
2017-09-03T09:37:19.999Z,65.30
2017-09-03T09:39:51.875Z,65.20
2017-09-03T09:42:24.638Z,65.40
2017-09-03T09:44:58.918Z,65.50
2017-09-03T09:47:35.126Z,65.30
2017-09-03T09:50:04.232Z,65.20
2017-09-03T09:52:39.094Z,65.50
2017-09-03T09:55:06.272Z,65.70
2017-09-03T09:57:33.420Z,64.50
2017-09-03T10:00:01.354Z,65.60
2017-09-03T10:02:29.486Z,66.00
2017-09-03T10:04:57.522Z,65.70
2017-09-03T10:07:24.657Z,64.30
2017-09-03T10:09:51.849Z,64.80
2017-09-03T10:12:19.922Z,65.60
2017-09-03T10:14:47.066Z,65.10
2017-09-03T10:17:14.218Z,65.30
2017-09-03T10:19:41.359Z,65.50
2017-09-03T10:22:09.305Z,64.80
2017-09-03T10:24:36.451Z,64.90
2017-09-03T10:27:04.406Z,65.30
2017-09-03T10:29:32.482Z,64.90
2017-09-03T10:31:59.624Z,64.90
2017-09-03T10:34:26.809Z,63.70
2017-09-03T10:36:54.512Z,65.00
2017-09-03T10:39:21.655Z,65.00
2017-09-03T10:41:48.805Z,64.50
2017-09-03T10:44:15.961Z,64.50
2017-09-03T10:46:43.154Z,64.20
2017-09-03T10:49:10.300Z,63.10
2017-09-03T10:51:37.445Z,64.10
2017-09-03T10:54:04.630Z,63.20
2017-09-03T10:56:31.770Z,63.20
2017-09-03T10:58:58.933Z,63.30
2017-09-03T11:01:26.113Z,63.70
2017-09-03T11:03:54.030Z,63.70
2017-09-03T11:06:23.099Z,64.50
2017-09-03T11:08:50.294Z,63.60
2017-09-03T11:11:17.443Z,63.70
2017-09-03T11:13:45.662Z,63.50
2017-09-03T11:16:13.666Z,64.20
2017-09-03T11:18:41.731Z,63.00
2017-09-03T11:21:09.655Z,62.80
2017-09-03T11:26:23.458Z,63.80
2017-09-03T11:28:50.633Z,63.60
2017-09-03T11:31:30.122Z,63.00
2017-09-03T11:33:57.663Z,63.70
2017-09-03T11:36:25.806Z,63.70
2017-09-03T11:38:52.953Z,63.20
2017-09-03T11:41:20.878Z,63.30
2017-09-03T11:43:48.918Z,61.00
2017-09-03T11:46:16.066Z,62.90
2017-09-03T11:48:43.203Z,62.40
2017-09-03T11:51:10.354Z,62.80
2017-09-03T11:53:37.541Z,63.20
2017-09-03T11:56:04.681Z,61.90
2017-09-03T11:58:31.833Z,62.70
2017-09-03T12:00:58.981Z,62.60
2017-09-03T12:03:26.124Z,61.00
2017-09-03T12:05:53.294Z,61.10
2017-09-03T12:08:20.436Z,59.00
2017-09-03T12:10:47.634Z,61.60
2017-09-03T12:13:15.544Z,63.50
2017-09-03T12:15:43.477Z,63.50
2017-09-03T12:18:12.297Z,66.20
2017-09-03T12:20:40.214Z,66.20
2017-09-03T12:23:07.354Z,67.40
2017-09-03T12:25:34.503Z,68.30
2017-09-03T12:28:01.648Z,68.90
2017-09-03T12:30:28.788Z,69.10
2017-09-03T12:32:55.931Z,68.80
2017-09-03T12:35:23.067Z,68.40
2017-09-03T12:37:50.201Z,68.20
2017-09-03T12:40:18.109Z,67.80
2017-09-03T12:42:45.253Z,67.80
2017-09-03T12:45:12.426Z,67.60
2017-09-03T12:47:39.563Z,67.80
2017-09-03T12:50:06.710Z,68.10
2017-09-03T12:52:33.885Z,67.80
2017-09-03T12:55:01.018Z,67.40
2017-09-03T12:57:28.195Z,67.70
2017-09-03T12:59:55.343Z,67.90
2017-09-03T13:02:22.520Z,67.90
2017-09-03T13:04:51.190Z,68.00
2017-09-03T13:07:19.278Z,68.00
2017-09-03T13:09:48.085Z,68.10
2017-09-03T13:12:15.266Z,68.00
2017-09-03T13:14:42.413Z,68.20
2017-09-03T13:17:09.593Z,68.30
2017-09-03T13:19:36.734Z,68.40
2017-09-03T13:22:03.874Z,68.50
2017-09-03T13:24:31.014Z,68.70
2017-09-03T13:26:58.197Z,68.90
2017-09-03T13:29:25.339Z,68.90
2017-09-03T13:31:52.526Z,69.20
2017-09-03T13:34:20.442Z,69.50
2017-09-03T13:36:47.582Z,69.40
2017-09-03T13:39:14.723Z,69.30
2017-09-03T13:41:41.861Z,69.80
2017-09-03T13:44:08.994Z,70.10
2017-09-03T13:46:36.907Z,69.60
2017-09-03T13:49:04.059Z,69.50
2017-09-03T13:51:31.203Z,69.60
2017-09-03T13:53:58.393Z,69.20
2017-09-03T13:56:25.538Z,69.10
2017-09-03T13:58:52.685Z,69.10
2017-09-03T14:01:19.826Z,68.60
2017-09-03T14:03:46.969Z,69.60
2017-09-03T14:06:14.141Z,69.60
2017-09-03T14:08:41.282Z,69.40
2017-09-03T14:11:08.429Z,69.90
2017-09-03T14:13:35.573Z,70.00
2017-09-03T14:16:03.497Z,70.10
2017-09-03T14:18:31.411Z,70.30
2017-09-03T14:20:58.559Z,70.30
2017-09-03T14:23:25.712Z,70.70
2017-09-03T14:25:52.865Z,70.30
2017-09-03T14:28:20.067Z,70.60
2017-09-03T14:30:47.222Z,70.70
2017-09-03T14:33:14.367Z,71.00
2017-09-03T14:35:41.519Z,71.00
2017-09-03T14:38:08.667Z,71.00
2017-09-03T14:40:35.810Z,71.10
2017-09-03T14:43:03.869Z,71.00
2017-09-03T14:45:31.013Z,70.80
2017-09-03T14:47:58.152Z,70.70
2017-09-03T14:50:25.338Z,70.90
2017-09-03T14:52:52.486Z,70.80
2017-09-03T14:55:19.638Z,72.00
2017-09-03T14:57:46.784Z,71.00
2017-09-03T15:00:13.926Z,70.80
2017-09-03T15:02:41.073Z,70.70
2017-09-03T15:05:08.214Z,70.70
2017-09-03T15:07:35.374Z,70.60
2017-09-03T15:10:02.521Z,71.40
2017-09-03T15:12:29.681Z,70.00
2017-09-03T15:14:56.829Z,70.00
2017-09-03T15:17:23.981Z,70.00
2017-09-03T15:19:52.146Z,70.10
2017-09-03T15:22:19.289Z,70.10
2017-09-03T15:24:46.431Z,70.00
2017-09-03T15:27:13.570Z,70.10
2017-09-03T15:29:40.714Z,70.10
2017-09-03T15:32:07.859Z,70.00
2017-09-03T15:34:35.044Z,70.60
2017-09-03T15:37:02.189Z,70.00
2017-09-03T15:39:29.335Z,69.90
2017-09-03T15:41:56.476Z,69.80
2017-09-03T15:44:23.623Z,69.50
2017-09-03T15:46:50.770Z,69.20
2017-09-03T15:49:17.906Z,69.10
2017-09-03T15:51:45.058Z,68.70
2017-09-03T15:54:12.195Z,69.00
2017-09-03T15:56:39.337Z,69.10
2017-09-03T15:59:06.609Z,69.10
2017-09-03T16:01:33.750Z,68.80
2017-09-03T16:04:01.665Z,69.10
2017-09-03T16:06:28.802Z,69.10
2017-09-03T16:08:56.624Z,69.00
2017-09-03T16:11:24.598Z,68.60
2017-09-03T16:13:51.753Z,68.70
2017-09-03T16:16:18.898Z,67.50
2017-09-03T16:18:46.081Z,67.90
2017-09-03T16:21:13.221Z,68.40
2017-09-03T16:23:41.341Z,67.40
2017-09-03T16:26:09.376Z,68.60
2017-09-03T16:28:36.514Z,68.20
2017-09-03T16:31:05.269Z,67.90
2017-09-03T16:33:32.425Z,67.90
2017-09-03T16:35:59.601Z,67.80
2017-09-03T16:38:26.797Z,67.80
2017-09-03T16:40:53.933Z,68.20
2017-09-03T16:43:21.076Z,67.80
2017-09-03T16:45:48.255Z,68.00
2017-09-03T16:48:15.404Z,68.00
2017-09-03T16:50:42.590Z,68.20
2017-09-03T16:53:09.725Z,68.00
2017-09-03T16:55:36.874Z,68.20
2017-09-03T16:58:04.582Z,68.40
2017-09-03T17:00:31.721Z,68.50
2017-09-03T17:02:58.900Z,68.40
2017-09-03T17:05:26.041Z,68.70
2017-09-03T17:07:54.925Z,69.50
2017-09-03T17:10:22.061Z,69.40
2017-09-03T17:12:49.206Z,69.30
2017-09-03T17:15:17.120Z,68.90
2017-09-03T17:17:44.261Z,69.00
2017-09-03T17:20:12.375Z,69.10
2017-09-03T17:22:39.527Z,68.70
2017-09-03T17:25:06.706Z,69.00
2017-09-03T17:27:33.925Z,68.10
2017-09-03T17:30:03.033Z,69.40
2017-09-03T17:32:32.825Z,68.30
2017-09-03T17:35:20.121Z,68.30
2017-09-03T17:38:03.045Z,68.00
2017-09-03T17:40:30.838Z,67.70
2017-09-03T17:42:58.521Z,67.30
2017-09-03T17:45:25.661Z,67.40
2017-09-03T17:47:52.846Z,67.00
2017-09-03T17:50:19.978Z,67.10
2017-09-03T17:52:47.125Z,67.20
2017-09-03T17:55:14.277Z,67.30
2017-09-03T17:57:41.429Z,67.10
2017-09-03T18:00:08.579Z,67.30
2017-09-03T18:02:35.728Z,67.10
2017-09-03T18:05:05.799Z,67.30
2017-09-03T18:07:33.115Z,67.50
2017-09-03T18:10:00.298Z,67.20
2017-09-03T18:12:28.213Z,67.20
2017-09-03T18:14:55.414Z,67.20
2017-09-03T18:17:22.569Z,67.20
2017-09-03T18:19:50.561Z,67.40
2017-09-03T18:22:17.729Z,67.50
2017-09-03T18:24:44.910Z,67.20
2017-09-03T18:27:12.249Z,67.40
2017-09-03T18:29:41.101Z,67.60
2017-09-03T18:32:08.248Z,67.60
2017-09-03T18:34:35.390Z,67.90
2017-09-03T18:37:06.542Z,67.80
2017-09-03T18:39:51.183Z,68.00
2017-09-03T18:42:38.025Z,67.90
2017-09-03T18:45:05.233Z,67.90
2017-09-03T18:47:32.414Z,68.60
2017-09-03T18:50:00.440Z,68.30
2017-09-03T18:52:41.269Z,67.90
2017-09-03T18:55:08.425Z,67.70
2017-09-03T18:57:38.518Z,67.90
2017-09-03T19:00:09.976Z,67.80
2017-09-03T19:02:38.914Z,67.80
2017-09-03T19:05:06.681Z,67.60
2017-09-03T19:07:33.865Z,67.50
2017-09-03T19:10:01.906Z,67.80
2017-09-03T19:12:30.171Z,67.60
2017-09-03T19:14:57.389Z,67.60
2017-09-03T19:17:24.530Z,67.50
2017-09-03T19:19:51.680Z,67.40
2017-09-03T19:22:18.830Z,67.20
2017-09-03T19:24:46.062Z,67.50
2017-09-03T19:27:13.237Z,67.80
2017-09-03T19:29:41.177Z,67.70
2017-09-03T19:32:08.373Z,67.60
2017-09-03T19:34:35.553Z,67.70
2017-09-03T19:37:02.712Z,68.00
2017-09-03T19:39:29.863Z,68.10
2017-09-03T19:41:57.849Z,68.00
2017-09-03T19:44:25.903Z,68.10
2017-09-03T19:46:53.091Z,68.20
2017-09-03T19:49:20.277Z,68.30
2017-09-03T19:51:47.421Z,68.30
2017-09-03T19:54:14.616Z,68.40
2017-09-03T19:56:42.663Z,68.50
2017-09-03T19:59:09.806Z,68.40
2017-09-03T20:01:36.980Z,68.60
2017-09-03T20:04:04.121Z,68.60
2017-09-03T20:06:31.298Z,68.70
2017-09-03T20:08:59.256Z,68.80
2017-09-03T20:11:27.328Z,68.80
2017-09-03T20:13:54.468Z,68.90
2017-09-03T20:16:21.647Z,68.80
2017-09-03T20:18:48.786Z,68.80
2017-09-03T20:21:15.979Z,68.90
2017-09-03T20:23:43.132Z,69.00
2017-09-03T20:26:11.057Z,69.20
2017-09-03T20:28:38.257Z,69.20
2017-09-03T20:31:06.201Z,69.20
2017-09-03T20:33:33.342Z,69.20
2017-09-03T20:36:01.270Z,69.30
2017-09-03T20:38:28.412Z,69.30
2017-09-03T20:40:56.365Z,69.50
2017-09-03T20:43:24.405Z,69.40
2017-09-03T20:45:52.419Z,69.50
2017-09-03T20:48:21.117Z,69.50
2017-09-03T20:50:48.253Z,69.50
2017-09-03T20:53:16.198Z,69.50
2017-09-03T20:55:43.343Z,69.60
2017-09-03T20:58:11.456Z,69.50
2017-09-03T21:00:39.361Z,69.50
2017-09-03T21:03:07.361Z,69.50
2017-09-03T21:05:34.505Z,69.50
2017-09-03T21:08:02.413Z,69.60
2017-09-03T21:10:30.446Z,69.60
2017-09-03T21:12:57.625Z,69.70
2017-09-03T21:15:24.767Z,69.80
2017-09-03T21:17:51.951Z,69.90
2017-09-03T21:20:20.004Z,69.90
2017-09-03T21:22:47.962Z,69.90
2017-09-03T21:25:16.045Z,69.90
2017-09-03T21:27:44.086Z,69.90
2017-09-03T21:30:11.225Z,69.90
2017-09-03T21:32:39.294Z,69.80
2017-09-03T21:35:07.269Z,69.90
2017-09-03T21:37:34.407Z,70.00
2017-09-03T21:40:02.413Z,70.00
2017-09-03T21:42:29.590Z,70.00
2017-09-03T21:44:57.534Z,70.10
2017-09-03T21:47:24.673Z,70.10
2017-09-03T21:49:52.646Z,70.20
2017-09-03T21:52:19.788Z,70.10
2017-09-03T21:54:47.892Z,70.10
2017-09-03T21:57:15.037Z,70.00
2017-09-03T21:59:42.221Z,70.00
2017-09-03T22:02:09.369Z,70.10
2017-09-03T22:04:36.502Z,70.10
2017-09-03T22:07:04.416Z,70.80
2017-09-03T22:09:31.558Z,70.10
2017-09-03T22:11:59.627Z,70.20
2017-09-03T22:14:26.769Z,70.20
2017-09-03T22:16:54.009Z,70.20
2017-09-03T22:19:21.921Z,70.20
2017-09-03T22:21:49.993Z,70.20
2017-09-03T22:24:17.138Z,70.10
2017-09-03T22:26:45.190Z,70.20
2017-09-03T22:29:13.139Z,70.90
2017-09-03T22:31:41.203Z,70.20
2017-09-03T22:34:09.959Z,70.30
2017-09-03T22:36:37.105Z,70.30
2017-09-03T22:39:05.030Z,70.20
2017-09-03T22:41:33.085Z,70.30
2017-09-03T22:44:01.774Z,70.20
2017-09-03T22:46:28.949Z,70.20
2017-09-03T22:48:56.865Z,70.20
2017-09-03T22:51:24.972Z,70.30
2017-09-03T22:53:53.638Z,70.30
2017-09-03T22:56:20.807Z,70.30
2017-09-03T22:58:48.846Z,70.40
2017-09-03T23:01:16.015Z,70.40
2017-09-03T23:03:44.053Z,70.40
2017-09-03T23:06:11.237Z,70.40
2017-09-03T23:08:39.290Z,70.30
2017-09-03T23:11:06.440Z,70.30
2017-09-03T23:13:34.396Z,70.30
2017-09-03T23:16:02.208Z,70.20
2017-09-03T23:18:30.131Z,70.30
2017-09-03T23:20:58.220Z,70.30
2017-09-03T23:23:26.289Z,70.20
2017-09-03T23:25:54.238Z,70.30
2017-09-03T23:28:21.406Z,70.20
2017-09-03T23:30:48.551Z,70.30
2017-09-03T23:33:15.738Z,70.30
2017-09-03T23:35:42.880Z,70.20
2017-09-03T23:38:10.019Z,70.30
2017-09-03T23:40:38.077Z,70.40
2017-09-03T23:43:05.245Z,70.40
2017-09-03T23:45:33.294Z,70.50
2017-09-03T23:48:00.466Z,70.40
2017-09-03T23:50:27.610Z,70.50
2017-09-03T23:52:54.789Z,70.40
2017-09-03T23:55:22.698Z,70.40
2017-09-03T23:57:50.773Z,70.50
